Аэропорт: Пулково. Санкт-Петербург

ICAO: ULLI

METAR:
2024-06-22 08:30:00
ULLI 220830Z 31007MPS CAVOK 20/08 Q1010 R88/090060 NOSIG
TAF:
2024-06-22 07:53:00
TAF ULLI 220753Z 2209/2309 30006G13MPS 9999 BKN020 
  BECMG 2215/2217 02003MPS 
  PROB40 
  TEMPO 2223/2302 0400 PRFG FEW003